Time;durP1;ratioP1;P1;durP2;ratioP2;P2;SDS_P1;SDS_P2;PMS_P1;PMS_P2;Temp;Humidity;BMP_temperature;BMP_pressure;BME280_temperature;BME280_humidity;BME280_pressure;Samples;Min_cycle;Max_cycle;Signal;HPM_P1;HPM_P2
2023/03/21 00:00:42;;;;;;;;;;;;;;;9.80;72.34;99608.34;5095448;28;19926;-63
2023/03/21 00:03:11;;;;;;;;;;;;;;;9.80;72.74;99612.59;5095988;28;19966;-63
2023/03/21 00:05:41;;;;;;;;;;;;;;;9.79;72.61;99608.38;5096099;28;19966;-63
2023/03/21 00:08:10;;;;;;;;;;;;;;;9.78;72.46;99604.09;5096175;28;20358;-63
2023/03/21 00:10:38;;;;;;;;;;;;;;;9.70;72.72;99600.69;5096402;28;20007;-63
2023/03/21 00:13:11;;;;;;;;;;;;;;;9.64;73.00;99600.69;5096577;28;20349;-63
2023/03/21 00:15:49;;;;;;;;;;;;;;;9.61;73.44;99590.50;5096162;28;20018;-63
2023/03/21 00:18:40;;;;;;;;;;;;;;;9.59;73.13;99597.28;5095971;28;19920;-63
2023/03/21 00:21:14;;;;;;;;;;;;;;;9.57;73.20;99609.19;5095733;28;20011;-63
2023/03/21 00:24:02;;;;;;;;;;;;;;;9.59;73.57;99604.94;5095849;28;19926;-62
2023/03/21 00:26:31;;;;;;;;;;;;;;;9.55;73.28;99608.31;5095673;28;19920;-63
2023/03/21 00:29:00;;;;;;;;;;;;;;;9.50;73.10;99597.28;5095807;28;20014;-62
2023/03/21 00:31:28;;;;;;;;;;;;;;;9.45;73.21;99603.19;5095645;28;19920;-63
2023/03/21 00:34:00;;;;;;;;;;;;;;;9.46;73.42;99601.50;5095557;28;19927;-63
2023/03/21 00:36:32;;;;;;;;;;;;;;;9.50;73.03;99593.03;5095554;28;19969;-63
2023/03/21 00:39:01;;;;;;;;;;;;;;;9.55;73.27;99605.78;5095569;28;19927;-62
2023/03/21 00:41:29;;;;;;;;;;;;;;;9.56;73.32;99600.66;5095537;28;19920;-62
2023/03/21 00:44:12;;;;;;;;;;;;;;;9.56;73.36;99605.78;5094580;28;19931;-62
2023/03/21 00:46:41;;;;;;;;;;;;;;;9.57;73.00;99599.84;5095701;28;20333;-62
2023/03/21 00:49:22;;;;;;;;;;;;;;;9.51;73.64;99596.41;5095281;28;19959;-62
2023/03/21 00:51:52;;;;;;;;;;;;;;;9.58;74.06;99596.44;5095288;28;19924;-62
2023/03/21 00:54:24;;;;;;;;;;;;;;;9.59;73.88;99603.25;5095490;28;19920;-62
2023/03/21 00:56:53;;;;;;;;;;;;;;;9.55;73.39;99590.50;5095200;28;19927;-63
2023/03/21 00:59:22;;;;;;;;;;;;;;;9.55;73.78;99590.50;5095628;28;20015;-63
2023/03/21 01:01:52;;;;;;;;;;;;;;;9.49;74.09;99593.00;5093925;28;19924;-63
2023/03/21 01:04:25;;;;;;;;;;;;;;;9.44;74.04;99586.22;5094213;28;19924;-63
2023/03/21 01:06:56;;;;;;;;;;;;;;;9.40;73.86;99592.16;5095007;28;19920;-63
2023/03/21 01:09:25;;;;;;;;;;;;;;;9.43;73.88;99588.75;5093690;28;19932;-63
2023/03/21 01:11:53;;;;;;;;;;;;;;;9.36;74.54;99589.56;5093702;28;19928;-63
2023/03/21 01:14:22;;;;;;;;;;;;;;;9.33;74.30;99595.50;5094149;28;19920;-63
2023/03/21 01:16:54;;;;;;;;;;;;;;;9.33;74.60;99595.50;5094956;28;20010;-63
2023/03/21 01:19:27;;;;;;;;;;;;;;;9.34;75.29;99597.22;5094709;28;20032;-63
2023/03/21 01:22:17;;;;;;;;;;;;;;;9.30;74.36;99600.63;5094859;28;20298;-63
2023/03/21 01:24:45;;;;;;;;;;;;;;;9.29;74.80;99588.72;5094684;28;19923;-62
2023/03/21 01:27:24;;;;;;;;;;;;;;;9.23;74.74;99592.94;5095008;28;19920;-62
2023/03/21 01:29:52;;;;;;;;;;;;;;;9.21;75.31;99602.28;5093803;28;19927;-63
2023/03/21 01:32:21;;;;;;;;;;;;;;;9.18;75.02;99590.41;5094766;28;19920;-63
2023/03/21 01:34:50;;;;;;;;;;;;;;;9.14;75.31;99588.66;5093252;28;20007;-62
2023/03/21 01:37:25;;;;;;;;;;;;;;;9.17;74.77;99591.22;5094520;28;19919;-63
2023/03/21 01:39:54;;;;;;;;;;;;;;;9.14;75.50;99593.75;5094188;28;20341;-62
2023/03/21 01:42:22;;;;;;;;;;;;;;;9.14;75.91;99582.75;5093101;28;19926;-63
2023/03/21 01:44:53;;;;;;;;;;;;;;;9.09;76.21;99587.81;5094666;28;19919;-63
2023/03/21 01:47:22;;;;;;;;;;;;;;;9.08;76.13;99583.56;5093450;28;19927;-63
2023/03/21 01:50:03;;;;;;;;;;;;;;;9.11;76.29;99583.59;5094291;28;19920;-62
2023/03/21 01:52:53;;;;;;;;;;;;;;;9.17;76.71;99587.81;5086572;28;20378;-63
2023/03/21 01:55:28;;;;;;;;;;;;;;;9.12;76.17;99585.25;5094175;28;19920;-63
2023/03/21 01:58:01;;;;;;;;;;;;;;;9.17;76.85;99581.03;5093149;28;19920;-63
2023/03/21 02:00:46;;;;;;;;;;;;;;;9.22;77.63;99581.91;5094195;28;19920;-63
2023/03/21 02:03:28;;;;;;;;;;;;;;;9.23;77.00;99583.63;5094417;28;20377;-63
2023/03/21 02:06:15;;;;;;;;;;;;;;;9.23;76.98;99578.53;5094446;28;19927;-63
2023/03/21 02:08:50;;;;;;;;;;;;;;;9.18;77.01;99582.75;5094409;28;20312;-63
2023/03/21 02:11:20;;;;;;;;;;;;;;;9.18;77.04;99579.34;5093087;28;19919;-63
2023/03/21 02:13:48;;;;;;;;;;;;;;;9.17;77.00;99568.31;5092834;28;20023;-63
2023/03/21 02:16:27;;;;;;;;;;;;;;;9.15;76.93;99580.19;5093949;28;19927;-63
2023/03/21 02:19:00;;;;;;;;;;;;;;;9.12;77.70;99575.09;5094028;28;20011;-62
2023/03/21 02:21:46;;;;;;;;;;;;;;;9.04;76.99;99574.22;5092807;28;19955;-62
2023/03/21 02:24:28;;;;;;;;;;;;;;;9.09;77.33;99575.09;5092766;28;19962;-62
2023/03/21 02:27:08;;;;;;;;;;;;;;;9.13;77.61;99566.63;5097780;28;19920;-62
2023/03/21 02:29:54;;;;;;;;;;;;;;;9.14;77.88;99577.66;5097445;28;20357;-63
2023/03/21 02:32:26;;;;;;;;;;;;;;;9.15;77.77;99567.47;5094574;28;20010;-63
2023/03/21 02:35:16;;;;;;;;;;;;;;;9.14;77.35;99575.94;5097925;28;19927;-63
2023/03/21 02:37:48;;;;;;;;;;;;;;;9.06;77.41;99577.63;5096768;28;19927;-63
2023/03/21 02:40:33;;;;;;;;;;;;;;;9.02;77.83;99578.44;5097877;28;20011;-62
2023/03/21 02:43:06;;;;;;;;;;;;;;;8.97;77.22;99575.06;5097053;28;19926;-62
2023/03/21 02:45:52;;;;;;;;;;;;;;;8.92;77.56;99573.31;5096789;28;20360;-62
2023/03/21 02:48:23;;;;;;;;;;;;;;;8.88;77.17;99576.72;5096546;28;19924;-62
2023/03/21 02:51:06;;;;;;;;;;;;;;;8.89;77.12;99576.69;5097652;28;19920;-62
2023/03/21 02:53:38;;;;;;;;;;;;;;;8.75;77.44;99578.34;5096477;28;20016;-63
2023/03/21 02:56:09;;;;;;;;;;;;;;;8.68;76.76;99571.53;5097505;28;19920;-63
2023/03/21 02:58:44;;;;;;;;;;;;;;;8.66;77.61;99574.03;5096728;28;19950;-63
2023/03/21 03:01:12;;;;;;;;;;;;;;;8.60;77.12;99575.72;5097411;28;19927;-62
2023/03/21 03:03:48;;;;;;;;;;;;;;;8.55;77.20;99574.81;5097725;28;19923;-62
2023/03/21 03:06:19;;;;;;;;;;;;;;;8.54;77.54;99573.16;5097526;28;19920;-63
2023/03/21 03:09:03;;;;;;;;;;;;;;;8.58;78.56;99578.25;5096109;28;19931;-62
2023/03/21 03:11:34;;;;;;;;;;;;;;;8.52;77.61;99572.25;5097273;28;19926;-62
2023/03/21 03:14:15;;;;;;;;;;;;;;;8.50;78.26;99571.41;5096026;28;19920;-62
2023/03/21 03:17:10;;;;;;;;;;;;;;;8.42;77.41;99568.00;5097277;28;20304;-62
2023/03/21 03:19:46;;;;;;;;;;;;;;;8.41;78.05;99571.34;5095974;28;20002;-63
2023/03/21 03:22:23;;;;;;;;;;;;;;;8.41;78.29;99572.22;5097118;28;19920;-63
2023/03/21 03:24:56;;;;;;;;;;;;;;;8.41;78.09;99568.81;5097045;28;19928;-63
2023/03/21 03:27:28;;;;;;;;;;;;;;;8.39;78.02;99568.81;5096923;28;19920;-63
2023/03/21 03:30:03;;;;;;;;;;;;;;;8.27;77.42;99563.66;5096946;28;19928;-63
2023/03/21 03:32:35;;;;;;;;;;;;;;;8.17;77.55;99571.16;5095955;28;19924;-63
2023/03/21 03:35:05;;;;;;;;;;;;;;;8.20;78.42;99572.06;5096038;28;19926;-62
2023/03/21 03:37:36;;;;;;;;;;;;;;;8.13;77.46;99575.38;5096083;28;20014;-62
2023/03/21 03:40:11;;;;;;;;;;;;;;;8.06;78.29;99574.47;5097000;28;19989;-62
2023/03/21 03:42:48;;;;;;;;;;;;;;;8.05;77.91;99567.69;5097011;28;19919;-62
2023/03/21 03:45:30;;;;;;;;;;;;;;;8.05;77.96;99572.78;5096602;28;19920;-62
2023/03/21 03:48:02;;;;;;;;;;;;;;;8.03;77.99;99578.69;5095575;28;19920;-62
2023/03/21 03:50:38;;;;;;;;;;;;;;;7.96;77.80;99577.81;5095606;28;19920;-62
2023/03/21 03:53:17;;;;;;;;;;;;;;;7.93;78.06;99571.84;5096842;28;19920;-62
2023/03/21 03:55:51;;;;;;;;;;;;;;;7.92;77.42;99572.66;5096657;28;20000;-62
2023/03/21 03:58:22;;;;;;;;;;;;;;;7.88;77.36;99564.19;5096417;28;20014;-62
2023/03/21 04:01:01;;;;;;;;;;;;;;;7.83;78.11;99573.44;5095046;28;19924;-62
2023/03/21 04:03:29;;;;;;;;;;;;;;;7.85;77.75;99571.78;5095098;28;19927;-62
2023/03/21 04:06:15;;;;;;;;;;;;;;;7.86;78.18;99580.25;5095297;28;19943;-64
2023/03/21 04:08:44;;;;;;;;;;;;;;;7.81;78.36;99585.28;5094970;28;19920;-64
2023/03/21 04:11:15;;;;;;;;;;;;;;;7.82;78.98;99581.06;5094810;28;20424;-64
2023/03/21 04:13:48;;;;;;;;;;;;;;;7.79;78.36;99579.34;5096060;28;19924;-64
2023/03/21 04:16:23;;;;;;;;;;;;;;;7.82;78.53;99584.44;5094788;28;19920;-63
2023/03/21 04:18:52;;;;;;;;;;;;;;;7.73;78.54;99584.38;5095942;28;19974;-64
2023/03/21 04:21:21;;;;;;;;;;;;;;;7.69;78.53;99590.25;5095758;28;19920;-64
2023/03/21 04:23:53;;;;;;;;;;;;;;;7.60;78.25;99584.25;5095855;28;19920;-64
2023/03/21 04:26:24;;;;;;;;;;;;;;;7.57;78.44;99587.59;5094715;28;19930;-64
2023/03/21 04:29:12;;;;;;;;;;;;;;;7.53;78.31;99578.25;5095659;28;19924;-63
2023/03/21 04:32:02;;;;;;;;;;;;;;;7.50;78.57;99585.84;5095677;28;19926;-64
2023/03/21 04:34:31;;;;;;;;;;;;;;;7.49;78.25;99589.22;5094456;28;19920;-64
2023/03/21 04:37:09;;;;;;;;;;;;;;;7.52;78.32;99598.53;5095588;28;19931;-63
2023/03/21 04:39:41;;;;;;;;;;;;;;;7.51;78.75;99597.69;5094366;28;19920;-64
2023/03/21 04:42:13;;;;;;;;;;;;;;;7.48;78.52;99597.69;5094525;28;19927;-64
2023/03/21 04:44:41;;;;;;;;;;;;;;;7.47;78.38;99595.97;5095833;28;19975;-64
2023/03/21 04:47:12;;;;;;;;;;;;;;;7.46;79.05;99594.28;5095726;28;19924;-64
2023/03/21 04:49:41;;;;;;;;;;;;;;;7.51;78.73;99597.69;5093609;28;20015;-64
2023/03/21 04:52:11;;;;;;;;;;;;;;;7.51;78.55;99599.41;5095639;28;19920;-63
2023/03/21 04:54:40;;;;;;;;;;;;;;;7.54;78.54;99594.31;5094069;28;19919;-63
2023/03/21 04:57:09;;;;;;;;;;;;;;;7.46;79.38;99594.28;5094024;28;19920;-64
2023/03/21 04:59:39;;;;;;;;;;;;;;;7.42;79.16;99590.84;5093911;28;20023;-64
2023/03/21 05:02:08;;;;;;;;;;;;;;;7.43;79.34;99594.25;5095157;28;19924;-64
2023/03/21 05:04:37;;;;;;;;;;;;;;;7.42;79.63;99593.38;5095460;28;19920;-64
2023/03/21 05:07:06;;;;;;;;;;;;;;;7.44;79.69;99601.84;5093782;28;19967;-64
2023/03/21 05:09:34;;;;;;;;;;;;;;;7.50;79.95;99605.31;5093764;28;19919;-64
2023/03/21 05:12:03;;;;;;;;;;;;;;;7.47;79.74;99603.59;5094747;28;19924;-64
2023/03/21 05:14:33;;;;;;;;;;;;;;;7.54;79.60;99607.88;5094945;28;19928;-64
2023/03/21 05:17:04;;;;;;;;;;;;;;;7.59;79.91;99606.25;5095292;28;19927;-64
2023/03/21 05:19:34;;;;;;;;;;;;;;;7.66;79.13;99602.94;5094857;28;20011;-64
2023/03/21 05:22:06;;;;;;;;;;;;;;;7.73;79.64;99598.75;5094816;28;19959;-63
2023/03/21 05:24:38;;;;;;;;;;;;;;;7.77;79.07;99611.53;5093727;28;20370;-64
2023/03/21 05:27:12;;;;;;;;;;;;;;;7.84;79.63;99618.34;5093820;28;19920;-64
2023/03/21 05:29:46;;;;;;;;;;;;;;;7.92;79.50;99614.16;5094952;28;19973;-64
2023/03/21 05:32:17;;;;;;;;;;;;;;;8.00;79.55;99615.09;5094917;28;19959;-64
2023/03/21 05:34:46;;;;;;;;;;;;;;;8.09;79.14;99607.53;5093813;28;19920;-63
2023/03/21 05:37:15;;;;;;;;;;;;;;;8.16;79.03;99610.16;5093316;28;19920;-63
2023/03/21 05:39:48;;;;;;;;;;;;;;;8.22;79.13;99611.03;5095036;28;19931;-63
2023/03/21 05:42:23;;;;;;;;;;;;;;;8.30;78.48;99608.59;5093612;28;19927;-63
2023/03/21 05:44:52;;;;;;;;;;;;;;;8.27;79.23;99608.56;5093124;28;19927;-63
2023/03/21 05:47:28;;;;;;;;;;;;;;;8.28;78.05;99605.19;5093160;28;19986;-63
2023/03/21 05:49:59;;;;;;;;;;;;;;;8.37;78.65;99600.16;5094902;28;19920;-63
2023/03/21 05:52:30;;;;;;;;;;;;;;;8.43;78.19;99605.28;5094672;28;19979;-63
2023/03/21 05:54:59;;;;;;;;;;;;;;;8.45;78.78;99604.44;5094172;28;20292;-63
2023/03/21 05:57:28;;;;;;;;;;;;;;;8.51;78.48;99609.59;5094075;28;19920;-63
2023/03/21 06:00:04;;;;;;;;;;;;;;;8.57;78.08;99604.53;5093027;28;20019;-63
2023/03/21 06:02:44;;;;;;;;;;;;;;;8.64;78.25;99610.47;5094207;28;19920;-63
2023/03/21 06:05:23;;;;;;;;;;;;;;;8.62;77.83;99602.84;5094011;28;19924;-63
2023/03/21 06:07:52;;;;;;;;;;;;;;;8.64;78.22;99605.41;5094203;28;20010;-63
2023/03/21 06:10:21;;;;;;;;;;;;;;;8.61;77.78;99600.31;5094009;28;19920;-64
2023/03/21 06:12:50;;;;;;;;;;;;;;;8.60;78.09;99608.78;5094589;28;20355;-63
2023/03/21 06:15:33;;;;;;;;;;;;;;;8.57;77.39;99606.19;5093974;28;20006;-63
2023/03/21 06:18:12;;;;;;;;;;;;;;;8.53;77.66;99612.97;5093842;28;20412;-63
2023/03/21 06:20:53;;;;;;;;;;;;;;;8.63;77.88;99608.81;5092570;28;19928;-62
2023/03/21 06:23:22;;;;;;;;;;;;;;;8.65;77.71;99607.13;5092615;28;19920;-62
2023/03/21 06:25:51;;;;;;;;;;;;;;;8.77;77.51;99612.28;5093049;28;19924;-64
2023/03/21 06:28:21;;;;;;;;;;;;;;;8.94;77.69;99610.66;5093848;28;19966;-64
2023/03/21 06:30:50;;;;;;;;;;;;;;;9.01;77.97;99607.28;5092673;28;19927;-64
2023/03/21 06:33:23;;;;;;;;;;;;;;;9.02;76.75;99614.06;5094031;28;19920;-62
2023/03/21 06:35:53;;;;;;;;;;;;;;;9.14;77.21;99614.13;5092888;28;19963;-62
2023/03/21 06:38:22;;;;;;;;;;;;;;;9.21;76.88;99620.94;5092479;28;20278;-62
2023/03/21 06:40:51;;;;;;;;;;;;;;;9.34;77.62;99615.06;5092431;28;19969;-62
2023/03/21 06:43:22;;;;;;;;;;;;;;;9.43;76.52;99617.63;5094618;28;19920;-62
2023/03/21 06:45:51;;;;;;;;;;;;;;;9.62;76.53;99615.97;5092294;28;19920;-64
2023/03/21 06:48:21;;;;;;;;;;;;;;;9.79;76.76;99613.47;5093858;28;19920;-62
2023/03/21 06:50:53;;;;;;;;;;;;;;;10.03;76.07;99616.00;5092617;28;20327;-63
2023/03/21 06:53:26;;;;;;;;;;;;;;;10.07;75.64;99615.19;5092396;28;19920;-63
2023/03/21 06:56:06;;;;;;;;;;;;;;;10.09;75.27;99621.13;5093539;28;19927;-63
2023/03/21 06:58:36;;;;;;;;;;;;;;;10.06;74.93;99626.22;5093682;28;20385;-62
2023/03/21 07:01:06;;;;;;;;;;;;;;;10.10;74.74;99628.75;5092608;28;19920;-63
2023/03/21 07:03:44;;;;;;;;;;;;;;;10.18;74.08;99633.03;5092593;28;19959;-62
2023/03/21 07:06:15;;;;;;;;;;;;;;;10.27;74.30;99626.25;5094029;28;19920;-63
2023/03/21 07:08:46;;;;;;;;;;;;;;;10.35;73.85;99624.53;5092591;28;20412;-63
2023/03/21 07:11:17;;;;;;;;;;;;;;;10.54;73.76;99635.56;5093452;28;19973;-63
2023/03/21 07:13:47;;;;;;;;;;;;;;;10.85;73.66;99631.25;5097421;28;19920;-63
2023/03/21 07:16:16;;;;;;;;;;;;;;;10.96;73.24;99629.53;5095938;28;19934;-63
2023/03/21 07:18:45;;;;;;;;;;;;;;;11.05;72.96;99638.00;5097032;28;19931;-63
2023/03/21 07:21:15;;;;;;;;;;;;;;;11.20;72.45;99632.00;5097206;28;20359;-63
2023/03/21 07:23:45;;;;;;;;;;;;;;;11.34;72.06;99635.34;5097019;28;20092;-63
2023/03/21 07:26:17;;;;;;;;;;;;;;;11.47;72.25;99629.28;5096968;28;19924;-63
2023/03/21 07:28:46;;;;;;;;;;;;;;;11.80;72.03;99626.59;5096422;28;19920;-63
2023/03/21 07:31:15;;;;;;;;;;;;;;;11.99;71.81;99627.31;5095709;28;19920;-63
2023/03/21 07:33:44;;;;;;;;;;;;;;;12.20;71.21;99628.84;5096788;28;19919;-63
2023/03/21 07:36:15;;;;;;;;;;;;;;;12.18;70.83;99630.56;5097445;28;20374;-63
2023/03/21 07:38:46;;;;;;;;;;;;;;;12.36;70.92;99625.28;5095530;28;20301;-63
2023/03/21 07:41:19;;;;;;;;;;;;;;;12.49;70.55;99637.13;5096636;28;19942;-63
2023/03/21 07:43:50;;;;;;;;;;;;;;;12.50;70.06;99633.72;5096650;28;20019;-63
2023/03/21 07:46:19;;;;;;;;;;;;;;;12.55;69.59;99626.81;5096733;28;20234;-63
2023/03/21 07:48:49;;;;;;;;;;;;;;;12.67;69.11;99636.94;5096839;28;19927;-63
2023/03/21 07:51:19;;;;;;;;;;;;;;;12.81;68.71;99635.13;5095017;28;19920;-63
2023/03/21 07:53:48;;;;;;;;;;;;;;;12.93;68.55;99629.00;5096448;28;19920;-63
2023/03/21 07:56:17;;;;;;;;;;;;;;;12.94;68.18;99623.84;5096875;28;20259;-63
2023/03/21 07:58:45;;;;;;;;;;;;;;;13.03;67.37;99631.44;5105510;28;19923;-63
2023/03/21 08:01:14;;;;;;;;;;;;;;;13.05;67.45;99632.25;5105668;27;19919;-63
2023/03/21 08:03:43;;;;;;;;;;;;;;;13.21;67.68;99626.13;5105596;28;19952;-63
2023/03/21 08:06:11;;;;;;;;;;;;;;;13.41;67.25;99623.31;5107797;28;19919;-63
2023/03/21 08:08:41;;;;;;;;;;;;;;;13.39;66.55;99623.31;5116794;28;19931;-63
2023/03/21 08:11:11;;;;;;;;;;;;;;;13.41;66.16;99624.16;5116841;28;19919;-63
2023/03/21 08:13:40;;;;;;;;;;;;;;;13.56;66.32;99624.81;5116405;28;19919;-63
2023/03/21 08:16:09;;;;;;;;;;;;;;;13.67;65.51;99620.41;5116225;28;19920;-63
2023/03/21 08:18:37;;;;;;;;;;;;;;;13.73;65.57;99617.72;5116241;28;19920;-63
2023/03/21 08:21:06;;;;;;;;;;;;;;;13.82;64.98;99615.06;5116014;28;19993;-63
2023/03/21 08:23:36;;;;;;;;;;;;;;;14.01;64.87;99621.59;5115366;28;20309;-63
2023/03/21 08:26:08;;;;;;;;;;;;;;;14.02;64.26;99613.88;5098667;28;19966;-63
2023/03/21 08:28:38;;;;;;;;;;;;;;;14.12;64.27;99609.44;5095868;28;20284;-63
2023/03/21 08:31:07;;;;;;;;;;;;;;;14.27;63.63;99618.59;5095989;28;19949;-63
2023/03/21 08:33:36;;;;;;;;;;;;;;;14.33;62.69;99618.53;5101632;28;19924;-63
2023/03/21 08:36:04;;;;;;;;;;;;;;;14.50;62.38;99616.50;5104969;28;20286;-63
2023/03/21 08:38:33;;;;;;;;;;;;;;;14.63;61.43;99612.88;5095436;28;19919;-63
2023/03/21 08:41:02;;;;;;;;;;;;;;;14.82;60.72;99618.50;5095533;28;20014;-63
2023/03/21 08:43:32;;;;;;;;;;;;;;;14.94;60.03;99613.13;5095742;28;19920;-63
2023/03/21 08:46:02;;;;;;;;;;;;;;;14.90;59.21;99621.78;5095791;28;19998;-63
2023/03/21 08:48:31;;;;;;;;;;;;;;;14.90;58.81;99611.50;5095878;28;19926;-63
2023/03/21 08:51:00;;;;;;;;;;;;;;;15.04;58.82;99617.22;5095648;28;20014;-63
2023/03/21 08:53:28;;;;;;;;;;;;;;;15.12;58.08;99615.31;5095292;28;19926;-63
2023/03/21 08:55:57;;;;;;;;;;;;;;;15.28;58.36;99614.16;5093910;28;19920;-63
2023/03/21 08:58:25;;;;;;;;;;;;;;;15.45;57.79;99601.81;5095056;28;19931;-63
2023/03/21 09:00:55;;;;;;;;;;;;;;;15.48;56.84;99599.16;5095058;28;19926;-63
2023/03/21 09:03:26;;;;;;;;;;;;;;;15.52;56.71;99598.25;5107295;28;19919;-64
2023/03/21 09:05:55;;;;;;;;;;;;;;;15.70;56.41;99608.09;5115331;28;19967;-63
2023/03/21 09:08:23;;;;;;;;;;;;;;;15.91;56.39;99597.31;5115356;28;19950;-63
2023/03/21 09:10:53;;;;;;;;;;;;;;;16.10;56.11;99601.13;5108401;28;19951;-64
2023/03/21 09:13:21;;;;;;;;;;;;;;;16.41;56.06;99608.13;5099489;28;20002;-63
2023/03/21 09:15:51;;;;;;;;;;;;;;;16.54;55.25;99609.50;5094803;28;19920;-63
2023/03/21 09:18:43;;;;;;;;;;;;;;;16.58;54.70;99600.84;5094651;28;19920;-63
2023/03/21 09:21:13;;;;;;;;;;;;;;;16.57;54.37;99593.97;5093571;28;20002;-63
2023/03/21 09:23:43;;;;;;;;;;;;;;;16.56;54.23;99603.44;5094952;28;19954;-63
2023/03/21 09:26:12;;;;;;;;;;;;;;;16.86;54.54;99603.50;5094861;28;19920;-63
2023/03/21 09:28:41;;;;;;;;;;;;;;;17.19;53.84;99600.81;5094696;28;19920;-63
2023/03/21 09:31:11;;;;;;;;;;;;;;;17.11;53.27;99595.03;5094427;28;19920;-63
2023/03/21 09:33:41;;;;;;;;;;;;;;;16.97;52.68;99594.56;5095163;28;19927;-63
2023/03/21 09:36:12;;;;;;;;;;;;;;;16.55;52.22;99600.91;5094245;28;19920;-63
2023/03/21 09:38:41;;;;;;;;;;;;;;;16.13;52.86;99596.78;5094362;28;19926;-63
2023/03/21 09:41:17;;;;;;;;;;;;;;;16.08;53.40;99600.34;5094719;28;19982;-63
2023/03/21 09:43:52;;;;;;;;;;;;;;;16.01;53.14;99597.94;5094383;28;19927;-62
2023/03/21 09:46:25;;;;;;;;;;;;;;;15.97;53.30;99602.34;5094399;28;19927;-62
2023/03/21 09:48:59;;;;;;;;;;;;;;;15.85;53.59;99597.47;5094262;28;19966;-63
2023/03/21 09:51:31;;;;;;;;;;;;;;;15.84;54.08;99597.47;5094347;28;20011;-62
2023/03/21 09:54:02;;;;;;;;;;;;;;;15.91;54.22;99597.31;5094284;28;20366;-62
2023/03/21 09:56:31;;;;;;;;;;;;;;;16.29;54.35;99598.13;5094468;28;20361;-62
2023/03/21 09:59:00;;;;;;;;;;;;;;;16.85;54.25;99596.63;5094110;28;19955;-63
2023/03/21 10:01:33;;;;;;;;;;;;;;;17.29;53.54;99586.78;5094006;28;20365;-63
2023/03/21 10:04:05;;;;;;;;;;;;;;;17.38;52.03;99581.34;5094543;28;20354;-63
2023/03/21 10:06:38;;;;;;;;;;;;;;;17.28;51.78;99576.47;5094071;28;19920;-63
2023/03/21 10:09:12;;;;;;;;;;;;;;;17.51;52.05;99570.66;5094073;28;19924;-62
2023/03/21 10:11:43;;;;;;;;;;;;;;;17.52;51.65;99573.19;5094751;28;19924;-63
2023/03/21 10:14:18;;;;;;;;;;;;;;;17.19;50.95;99574.19;5093945;28;19919;-62
2023/03/21 10:16:52;;;;;;;;;;;;;;;16.97;50.94;99567.94;5094040;28;19930;-63
2023/03/21 10:19:23;;;;;;;;;;;;;;;16.97;51.31;99573.94;5094387;28;19927;-62
2023/03/21 10:21:52;;;;;;;;;;;;;;;16.91;51.13;99574.13;5093612;28;19926;-62
2023/03/21 10:24:33;;;;;;;;;;;;;;;16.78;51.47;99559.88;5093251;28;19966;-62
2023/03/21 10:27:03;;;;;;;;;;;;;;;16.59;51.03;99569.84;5093780;28;19920;-63
2023/03/21 10:29:35;;;;;;;;;;;;;;;16.41;50.71;99560.00;5093426;28;20010;-62
2023/03/21 10:32:05;;;;;;;;;;;;;;;16.43;51.27;99570.28;5094060;28;19965;-61
2023/03/21 10:34:37;;;;;;;;;;;;;;;16.48;51.80;99558.13;5093292;28;19920;-64
2023/03/21 10:37:06;;;;;;;;;;;;;;;16.51;51.66;99565.75;5099052;28;20361;-62
2023/03/21 10:39:38;;;;;;;;;;;;;;;16.39;51.14;99568.66;5093678;28;20396;-62
2023/03/21 10:42:07;;;;;;;;;;;;;;;16.24;50.83;99569.06;5097716;28;19920;-62
2023/03/21 10:44:36;;;;;;;;;;;;;;;16.13;50.77;99568.47;5093583;28;19947;-62
2023/03/21 10:47:06;;;;;;;;;;;;;;;15.94;50.84;99571.50;5105222;28;19955;-63
2023/03/21 10:49:38;;;;;;;;;;;;;;;15.93;51.25;99567.22;5098224;28;19929;-61
2023/03/21 10:52:27;;;;;;;;;;;;;;;15.95;52.17;99562.91;5097894;28;20376;-62
2023/03/21 10:55:05;;;;;;;;;;;;;;;15.95;51.74;99570.63;5104111;28;19947;-63
2023/03/21 10:57:36;;;;;;;;;;;;;;;15.96;51.52;99559.44;5097614;28;19920;-63
2023/03/21 11:00:13;;;;;;;;;;;;;;;16.04;51.10;99562.69;5102802;28;19919;-64
2023/03/21 11:02:42;;;;;;;;;;;;;;;16.33;49.98;99553.34;5104772;28;20277;-63
2023/03/21 11:05:19;;;;;;;;;;;;;;;16.75;49.33;99552.22;5115747;28;19920;-63
2023/03/21 11:07:48;;;;;;;;;;;;;;;16.82;48.50;99556.31;5117785;28;19924;-63
2023/03/21 11:10:27;;;;;;;;;;;;;;;17.00;48.76;99550.66;5117018;28;20277;-64
2023/03/21 11:12:57;;;;;;;;;;;;;;;17.10;48.43;99548.66;5108416;28;19920;-63
2023/03/21 11:15:28;;;;;;;;;;;;;;;17.08;47.83;99550.44;5100497;28;19920;-63
2023/03/21 11:17:56;;;;;;;;;;;;;;;17.00;47.33;99542.94;5097107;28;19951;-63
2023/03/21 11:20:29;;;;;;;;;;;;;;;16.79;46.46;99543.53;5096923;28;19920;-63
2023/03/21 11:22:59;;;;;;;;;;;;;;;16.91;46.18;99540.63;5097269;28;19919;-63
2023/03/21 11:25:33;;;;;;;;;;;;;;;17.12;45.78;99540.00;5097095;28;19943;-63
2023/03/21 11:28:06;;;;;;;;;;;;;;;16.94;45.90;99543.09;5096946;28;20369;-63
2023/03/21 11:30:34;;;;;;;;;;;;;;;16.67;46.08;99529.28;5096991;28;19927;-63
2023/03/21 11:33:05;;;;;;;;;;;;;;;16.58;46.67;99533.84;5096711;28;19970;-62
2023/03/21 11:35:36;;;;;;;;;;;;;;;16.53;47.24;99525.38;5096808;28;19927;-63
2023/03/21 11:38:07;;;;;;;;;;;;;;;16.42;47.12;99522.19;5096801;28;19920;-63
2023/03/21 11:40:36;;;;;;;;;;;;;;;16.69;46.81;99517.19;5105947;28;19926;-63
2023/03/21 11:43:24;;;;;;;;;;;;;;;17.06;45.78;99516.94;5103387;28;20357;-63
2023/03/21 11:45:57;;;;;;;;;;;;;;;17.28;44.83;99512.00;5114030;28;19920;-63
2023/03/21 11:48:26;;;;;;;;;;;;;;;17.34;44.91;99506.66;5107779;28;20360;-63
2023/03/21 11:50:59;;;;;;;;;;;;;;;17.50;44.71;99504.44;5109129;28;19920;-63
2023/03/21 11:53:35;;;;;;;;;;;;;;;17.46;45.04;99497.69;5104909;28;20280;-63
2023/03/21 11:56:10;;;;;;;;;;;;;;;17.28;44.88;99494.78;5097889;27;19927;-63
2023/03/21 11:58:44;;;;;;;;;;;;;;;17.17;44.81;99499.44;5095886;28;19927;-63
2023/03/21 12:01:17;;;;;;;;;;;;;;;17.10;45.31;99495.34;5096495;28;19927;-63
2023/03/21 12:03:48;;;;;;;;;;;;;;;17.05;45.20;99488.63;5113174;28;19919;-63
2023/03/21 12:06:26;;;;;;;;;;;;;;;16.98;44.67;99484.56;5109817;27;19973;-63
2023/03/21 12:09:04;;;;;;;;;;;;;;;16.86;44.56;99483.19;5101649;28;19924;-63
2023/03/21 12:11:39;;;;;;;;;;;;;;;16.77;44.55;99478.31;5096131;28;19926;-63
2023/03/21 12:14:13;;;;;;;;;;;;;;;16.69;45.02;99477.66;5096064;28;20328;-63
2023/03/21 12:16:47;;;;;;;;;;;;;;;16.65;44.75;99469.16;5095865;28;20002;-63
2023/03/21 12:19:21;;;;;;;;;;;;;;;17.14;44.78;99471.16;5096050;28;20015;-63
2023/03/21 12:21:58;;;;;;;;;;;;;;;17.61;43.76;99466.28;5095685;28;19924;-63
2023/03/21 12:24:30;;;;;;;;;;;;;;;17.92;42.52;99454.03;5095693;28;19927;-63
2023/03/21 12:27:05;;;;;;;;;;;;;;;18.38;41.75;99456.66;5096138;28;19956;-63
2023/03/21 12:29:44;;;;;;;;;;;;;;;18.77;41.69;99451.81;5095875;28;19981;-63
2023/03/21 12:32:25;;;;;;;;;;;;;;;18.70;41.77;99461.56;5096135;28;19920;-63
2023/03/21 12:35:01;;;;;;;;;;;;;;;18.45;41.60;99454.72;5095688;28;19989;-63
2023/03/21 12:37:37;;;;;;;;;;;;;;;18.16;41.33;99462.66;5096017;28;19931;-63
2023/03/21 12:40:11;;;;;;;;;;;;;;;17.93;41.74;99445.38;5095492;28;19927;-63
2023/03/21 12:42:49;;;;;;;;;;;;;;;17.74;42.00;99454.63;5095889;28;20215;-63
2023/03/21 12:45:21;;;;;;;;;;;;;;;17.66;42.97;99454.06;5095690;28;19920;-63
2023/03/21 12:47:51;;;;;;;;;;;;;;;17.55;43.04;99451.81;5101722;28;19924;-63
2023/03/21 12:50:23;;;;;;;;;;;;;;;17.48;43.12;99454.59;5095463;28;19924;-63
2023/03/21 12:52:56;;;;;;;;;;;;;;;17.35;42.93;99452.41;5094569;28;19966;-63
2023/03/21 12:55:27;;;;;;;;;;;;;;;17.29;42.88;99452.63;5103387;28;20010;-63
2023/03/21 12:57:59;;;;;;;;;;;;;;;17.28;43.10;99450.94;5115530;28;19920;-63
2023/03/21 13:00:30;;;;;;;;;;;;;;;17.24;43.61;99459.66;5115462;28;19927;-63
2023/03/21 13:03:00;;;;;;;;;;;;;;;17.19;43.89;99451.22;5104808;28;19934;-63
2023/03/21 13:05:30;;;;;;;;;;;;;;;17.14;44.39;99450.50;5115457;28;19926;-63
2023/03/21 13:08:04;;;;;;;;;;;;;;;17.12;44.31;99439.41;5115365;28;20003;-63
2023/03/21 13:10:33;;;;;;;;;;;;;;;17.12;44.61;99439.41;5103642;28;19920;-63
2023/03/21 13:13:08;;;;;;;;;;;;;;;17.13;44.90;99442.84;5095281;28;19966;-63
2023/03/21 13:15:52;;;;;;;;;;;;;;;17.13;44.71;99443.66;5094069;28;19978;-63
2023/03/21 13:18:26;;;;;;;;;;;;;;;17.14;44.83;99437.63;5093302;28;19959;-63
2023/03/21 13:20:56;;;;;;;;;;;;;;;17.17;44.95;99432.38;5094150;28;19920;-63